sensor_id;sensor_type;location;lat;lon;timestamp;pressure;altitude;pressure_sealevel;temperature;humidity
60489;BME280;46331;49.252;8.904;2022-07-10T00:01:26;100448.84;;;16.02;76.69
60489;BME280;46331;49.252;8.904;2022-07-10T00:03:51;100450.16;;;16.00;76.89
60489;BME280;46331;49.252;8.904;2022-07-10T00:06:17;100449.31;;;15.94;77.81
60489;BME280;46331;49.252;8.904;2022-07-10T00:08:42;100449.25;;;15.89;77.43
60489;BME280;46331;49.252;8.904;2022-07-10T00:11:09;100445.75;;;15.83;78.11
60489;BME280;46331;49.252;8.904;2022-07-10T00:13:35;100444.38;;;15.81;78.15
60489;BME280;46331;49.252;8.904;2022-07-10T00:16:00;100446.00;;;15.82;77.20
60489;BME280;46331;49.252;8.904;2022-07-10T00:18:30;100443.31;;;15.82;76.94
60489;BME280;46331;49.252;8.904;2022-07-10T00:20:55;100439.19;;;15.74;77.25
60489;BME280;46331;49.252;8.904;2022-07-10T00:23:21;100441.03;;;15.68;77.52
60489;BME280;46331;49.252;8.904;2022-07-10T00:25:47;100443.38;;;15.65;77.77
60489;BME280;46331;49.252;8.904;2022-07-10T00:28:12;100446.56;;;15.62;77.94
60489;BME280;46331;49.252;8.904;2022-07-10T00:30:38;100449.47;;;15.60;78.07
60489;BME280;46331;49.252;8.904;2022-07-10T00:33:04;100451.00;;;15.51;78.81
60489;BME280;46331;49.252;8.904;2022-07-10T00:35:30;100442.19;;;15.50;78.62
60489;BME280;46331;49.252;8.904;2022-07-10T00:37:55;100447.78;;;15.49;78.45
60489;BME280;46331;49.252;8.904;2022-07-10T00:40:21;100449.69;;;15.53;77.69
60489;BME280;46331;49.252;8.904;2022-07-10T00:42:47;100447.28;;;15.52;78.01
60489;BME280;46331;49.252;8.904;2022-07-10T00:45:13;100447.81;;;15.54;77.79
60489;BME280;46331;49.252;8.904;2022-07-10T00:47:38;100449.19;;;15.56;77.43
60489;BME280;46331;49.252;8.904;2022-07-10T00:50:05;100450.56;;;15.59;77.28
60489;BME280;46331;49.252;8.904;2022-07-10T00:52:32;100445.91;;;15.49;77.40
60489;BME280;46331;49.252;8.904;2022-07-10T00:55:01;100444.44;;;15.36;77.95
60489;BME280;46331;49.252;8.904;2022-07-10T00:57:27;100446.75;;;15.28;78.63
60489;BME280;46331;49.252;8.904;2022-07-10T00:59:53;100451.16;;;15.17;79.12
60489;BME280;46331;49.252;8.904;2022-07-10T01:05:37;100443.34;;;15.10;80.22
60489;BME280;46331;49.252;8.904;2022-07-10T01:08:03;100440.94;;;15.09;81.03
60489;BME280;46331;49.252;8.904;2022-07-10T01:10:28;100438.00;;;15.10;81.07
60489;BME280;46331;49.252;8.904;2022-07-10T01:12:55;100435.03;;;15.07;80.06
60489;BME280;46331;49.252;8.904;2022-07-10T01:15:20;100436.53;;;14.97;80.37
60489;BME280;46331;49.252;8.904;2022-07-10T01:17:46;100437.78;;;14.90;80.54
60489;BME280;46331;49.252;8.904;2022-07-10T01:20:14;100439.25;;;14.80;81.41
60489;BME280;46331;49.252;8.904;2022-07-10T01:22:39;100436.63;;;14.86;81.00
60489;BME280;46331;49.252;8.904;2022-07-10T01:25:05;100441.94;;;14.80;80.48
60489;BME280;46331;49.252;8.904;2022-07-10T01:27:31;100443.84;;;14.85;80.43
60489;BME280;46331;49.252;8.904;2022-07-10T01:29:57;100441.84;;;14.75;79.79
60489;BME280;46331;49.252;8.904;2022-07-10T01:32:23;100438.81;;;14.66;80.70
60489;BME280;46331;49.252;8.904;2022-07-10T01:34:48;100439.53;;;14.62;81.03
60489;BME280;46331;49.252;8.904;2022-07-10T01:37:14;100436.75;;;14.57;80.88
60489;BME280;46331;49.252;8.904;2022-07-10T01:39:39;100446.22;;;14.47;81.94
60489;BME280;46331;49.252;8.904;2022-07-10T01:42:05;100438.72;;;14.44;82.12
60489;BME280;46331;49.252;8.904;2022-07-10T01:44:31;100439.22;;;14.41;82.23
60489;BME280;46331;49.252;8.904;2022-07-10T01:46:56;100440.53;;;14.39;82.82
60489;BME280;46331;49.252;8.904;2022-07-10T01:49:22;100434.84;;;14.35;83.17
60489;BME280;46331;49.252;8.904;2022-07-10T01:51:47;100435.50;;;14.25;84.34
60489;BME280;46331;49.252;8.904;2022-07-10T01:54:13;100440.28;;;14.23;84.80
60489;BME280;46331;49.252;8.904;2022-07-10T01:56:38;100448.31;;;14.23;84.79
60489;BME280;46331;49.252;8.904;2022-07-10T01:59:04;100453.03;;;14.21;84.24
60489;BME280;46331;49.252;8.904;2022-07-10T02:01:31;100450.13;;;14.23;84.60
60489;BME280;46331;49.252;8.904;2022-07-10T02:03:57;100445.03;;;14.21;84.17
60489;BME280;46331;49.252;8.904;2022-07-10T02:06:40;100451.94;;;14.17;84.18
60489;BME280;46331;49.252;8.904;2022-07-10T02:09:06;100447.66;;;14.16;84.00
60489;BME280;46331;49.252;8.904;2022-07-10T02:11:32;100454.03;;;14.15;84.11
60489;BME280;46331;49.252;8.904;2022-07-10T02:13:57;100449.03;;;14.19;84.79
60489;BME280;46331;49.252;8.904;2022-07-10T02:16:23;100443.34;;;14.32;84.63
60489;BME280;46331;49.252;8.904;2022-07-10T02:18:48;100453.78;;;14.34;84.38
60489;BME280;46331;49.252;8.904;2022-07-10T02:21:14;100460.00;;;14.39;84.94
60489;BME280;46331;49.252;8.904;2022-07-10T02:23:40;100456.53;;;14.39;85.16
60489;BME280;46331;49.252;8.904;2022-07-10T02:26:06;100458.63;;;14.37;85.47
60489;BME280;46331;49.252;8.904;2022-07-10T02:28:34;100457.66;;;14.43;84.76
60489;BME280;46331;49.252;8.904;2022-07-10T02:31:00;100464.66;;;14.49;84.55
60489;BME280;46331;49.252;8.904;2022-07-10T02:33:26;100465.00;;;14.53;84.07
60489;BME280;46331;49.252;8.904;2022-07-10T02:35:51;100478.13;;;14.54;84.15
60489;BME280;46331;49.252;8.904;2022-07-10T02:38:17;100478.13;;;14.54;84.74
60489;BME280;46331;49.252;8.904;2022-07-10T02:40:43;100475.03;;;14.62;84.30
60489;BME280;46331;49.252;8.904;2022-07-10T02:43:09;100474.00;;;14.63;83.42
60489;BME280;46331;49.252;8.904;2022-07-10T02:45:34;100476.66;;;14.63;84.22
60489;BME280;46331;49.252;8.904;2022-07-10T02:48:00;100466.47;;;14.60;84.43
60489;BME280;46331;49.252;8.904;2022-07-10T02:50:25;100473.50;;;14.66;84.55
60489;BME280;46331;49.252;8.904;2022-07-10T02:52:51;100478.59;;;14.68;84.28
60489;BME280;46331;49.252;8.904;2022-07-10T02:55:17;100472.38;;;14.62;84.85
60489;BME280;46331;49.252;8.904;2022-07-10T02:57:42;100476.97;;;14.67;84.23
60489;BME280;46331;49.252;8.904;2022-07-10T03:00:08;100476.09;;;14.61;83.82
60489;BME280;46331;49.252;8.904;2022-07-10T03:02:34;100477.03;;;14.55;83.53
60489;BME280;46331;49.252;8.904;2022-07-10T03:04:59;100483.09;;;14.51;83.75
60489;BME280;46331;49.252;8.904;2022-07-10T03:07:25;100482.63;;;14.54;83.92
60489;BME280;46331;49.252;8.904;2022-07-10T03:09:50;100492.94;;;14.62;83.68
60489;BME280;46331;49.252;8.904;2022-07-10T03:12:16;100490.13;;;14.57;84.33
60489;BME280;46331;49.252;8.904;2022-07-10T03:14:41;100487.41;;;14.52;84.61
60489;BME280;46331;49.252;8.904;2022-07-10T03:17:07;100489.28;;;14.51;84.61
60489;BME280;46331;49.252;8.904;2022-07-10T03:19:32;100479.88;;;14.48;85.01
60489;BME280;46331;49.252;8.904;2022-07-10T03:21:59;100484.19;;;14.49;85.14
60489;BME280;46331;49.252;8.904;2022-07-10T03:24:24;100479.41;;;14.52;84.58
60489;BME280;46331;49.252;8.904;2022-07-10T03:26:50;100488.19;;;14.52;83.97
60489;BME280;46331;49.252;8.904;2022-07-10T03:29:15;100489.34;;;14.56;83.59
60489;BME280;46331;49.252;8.904;2022-07-10T03:31:41;100491.63;;;14.64;83.49
60489;BME280;46331;49.252;8.904;2022-07-10T03:34:06;100493.63;;;14.74;82.88
60489;BME280;46331;49.252;8.904;2022-07-10T03:36:32;100493.41;;;14.76;82.63
60489;BME280;46331;49.252;8.904;2022-07-10T03:38:57;100490.22;;;14.79;82.37
60489;BME280;46331;49.252;8.904;2022-07-10T03:41:23;100497.66;;;14.77;82.29
60489;BME280;46331;49.252;8.904;2022-07-10T03:43:48;100489.09;;;14.75;82.06
60489;BME280;46331;49.252;8.904;2022-07-10T03:46:14;100484.66;;;14.80;82.41
60489;BME280;46331;49.252;8.904;2022-07-10T03:48:39;100490.84;;;14.86;81.94
60489;BME280;46331;49.252;8.904;2022-07-10T03:51:05;100488.81;;;14.93;81.62
60489;BME280;46331;49.252;8.904;2022-07-10T03:53:31;100490.19;;;14.96;81.27
60489;BME280;46331;49.252;8.904;2022-07-10T03:55:56;100487.03;;;14.99;81.02
60489;BME280;46331;49.252;8.904;2022-07-10T03:58:22;100485.94;;;15.00;80.86
60489;BME280;46331;49.252;8.904;2022-07-10T04:00:47;100490.00;;;15.02;80.34
60489;BME280;46331;49.252;8.904;2022-07-10T04:03:13;100494.34;;;15.09;80.33
60489;BME280;46331;49.252;8.904;2022-07-10T04:05:39;100497.97;;;15.19;78.91
60489;BME280;46331;49.252;8.904;2022-07-10T04:08:04;100498.34;;;15.28;78.51
60489;BME280;46331;49.252;8.904;2022-07-10T04:10:31;100500.53;;;15.31;78.43
60489;BME280;46331;49.252;8.904;2022-07-10T04:12:57;100498.41;;;15.33;78.12
60489;BME280;46331;49.252;8.904;2022-07-10T04:15:23;100499.53;;;15.37;77.58
60489;BME280;46331;49.252;8.904;2022-07-10T04:17:49;100489.38;;;15.40;76.95
60489;BME280;46331;49.252;8.904;2022-07-10T04:20:15;100485.41;;;15.42;76.45
60489;BME280;46331;49.252;8.904;2022-07-10T04:22:41;100490.19;;;15.40;76.26
60489;BME280;46331;49.252;8.904;2022-07-10T04:25:08;100483.53;;;15.43;75.32
60489;BME280;46331;49.252;8.904;2022-07-10T04:27:33;100484.31;;;15.43;74.25
60489;BME280;46331;49.252;8.904;2022-07-10T04:29:59;100482.66;;;15.37;74.23
60489;BME280;46331;49.252;8.904;2022-07-10T04:32:25;100484.16;;;15.28;74.20
60489;BME280;46331;49.252;8.904;2022-07-10T04:34:51;100478.75;;;15.23;73.69
60489;BME280;46331;49.252;8.904;2022-07-10T04:37:16;100483.84;;;15.24;73.10
60489;BME280;46331;49.252;8.904;2022-07-10T04:39:42;100486.97;;;15.16;73.37
60489;BME280;46331;49.252;8.904;2022-07-10T04:42:08;100488.47;;;15.07;73.52
60489;BME280;46331;49.252;8.904;2022-07-10T04:44:35;100486.84;;;15.06;73.37
60489;BME280;46331;49.252;8.904;2022-07-10T04:47:02;100497.56;;;15.11;72.49
60489;BME280;46331;49.252;8.904;2022-07-10T04:49:27;100491.50;;;15.15;72.27
60489;BME280;46331;49.252;8.904;2022-07-10T04:51:54;100484.31;;;15.16;71.98
60489;BME280;46331;49.252;8.904;2022-07-10T04:54:20;100486.41;;;15.14;71.81
60489;BME280;46331;49.252;8.904;2022-07-10T04:56:46;100486.66;;;15.12;71.65
60489;BME280;46331;49.252;8.904;2022-07-10T04:59:11;100488.81;;;15.15;71.13
60489;BME280;46331;49.252;8.904;2022-07-10T05:01:37;100480.00;;;15.15;71.07
60489;BME280;46331;49.252;8.904;2022-07-10T05:04:03;100482.47;;;15.22;71.08
60489;BME280;46331;49.252;8.904;2022-07-10T05:06:29;100483.59;;;15.26;70.52
60489;BME280;46331;49.252;8.904;2022-07-10T05:08:55;100489.38;;;15.40;69.89
60489;BME280;46331;49.252;8.904;2022-07-10T05:11:21;100502.13;;;15.54;68.70
60489;BME280;46331;49.252;8.904;2022-07-10T05:13:47;100502.97;;;15.60;68.23
60489;BME280;46331;49.252;8.904;2022-07-10T05:16:14;100507.91;;;15.73;67.14
60489;BME280;46331;49.252;8.904;2022-07-10T05:18:40;100508.69;;;15.91;65.57
60489;BME280;46331;49.252;8.904;2022-07-10T05:21:07;100505.81;;;16.03;65.38
60489;BME280;46331;49.252;8.904;2022-07-10T05:23:33;100507.28;;;16.16;64.88
60489;BME280;46331;49.252;8.904;2022-07-10T05:25:59;100508.44;;;16.25;64.39
60489;BME280;46331;49.252;8.904;2022-07-10T05:28:25;100495.81;;;16.20;64.12
60489;BME280;46331;49.252;8.904;2022-07-10T05:30:51;100517.94;;;16.43;63.43
60489;BME280;46331;49.252;8.904;2022-07-10T05:33:17;100510.78;;;16.54;62.76
60489;BME280;46331;49.252;8.904;2022-07-10T05:35:43;100523.72;;;16.67;61.79
60489;BME280;46331;49.252;8.904;2022-07-10T05:38:08;100527.78;;;16.70;61.48
60489;BME280;46331;49.252;8.904;2022-07-10T05:40:34;100534.50;;;16.77;61.03
60489;BME280;46331;49.252;8.904;2022-07-10T05:42:59;100533.22;;;16.85;59.83
60489;BME280;46331;49.252;8.904;2022-07-10T05:45:26;100536.81;;;17.01;60.10
60489;BME280;46331;49.252;8.904;2022-07-10T05:47:52;100527.53;;;17.19;59.73
60489;BME280;46331;49.252;8.904;2022-07-10T05:50:18;100530.75;;;17.26;58.27
60489;BME280;46331;49.252;8.904;2022-07-10T05:52:44;100528.38;;;17.30;57.93
60489;BME280;46331;49.252;8.904;2022-07-10T05:55:09;100527.88;;;17.38;57.22
60489;BME280;46331;49.252;8.904;2022-07-10T05:57:35;100529.25;;;17.46;56.37
60489;BME280;46331;49.252;8.904;2022-07-10T06:00:03;100545.66;;;17.65;56.65
60489;BME280;46331;49.252;8.904;2022-07-10T06:02:37;100551.84;;;17.70;55.60
60489;BME280;46331;49.252;8.904;2022-07-10T06:05:03;100556.41;;;17.75;55.84
60489;BME280;46331;49.252;8.904;2022-07-10T06:07:28;100552.69;;;17.86;54.82
60489;BME280;46331;49.252;8.904;2022-07-10T06:09:54;100550.31;;;17.95;54.23
60489;BME280;46331;49.252;8.904;2022-07-10T06:12:21;100547.38;;;18.07;54.04
60489;BME280;46331;49.252;8.904;2022-07-10T06:14:46;100553.56;;;18.23;53.32
60489;BME280;46331;49.252;8.904;2022-07-10T06:17:12;100549.00;;;18.23;53.19
60489;BME280;46331;49.252;8.904;2022-07-10T06:19:37;100548.72;;;18.40;52.47
60489;BME280;46331;49.252;8.904;2022-07-10T06:22:03;100546.88;;;18.51;51.77
60489;BME280;46331;49.252;8.904;2022-07-10T06:24:48;100544.19;;;18.51;50.74
60489;BME280;46331;49.252;8.904;2022-07-10T06:27:13;100545.50;;;18.64;49.79
60489;BME280;46331;49.252;8.904;2022-07-10T06:29:39;100544.13;;;18.77;50.03
60489;BME280;46331;49.252;8.904;2022-07-10T06:32:05;100548.75;;;18.87;49.62
60489;BME280;46331;49.252;8.904;2022-07-10T06:34:31;100545.78;;;18.88;49.16
60489;BME280;46331;49.252;8.904;2022-07-10T06:36:56;100550.59;;;18.81;48.21
60489;BME280;46331;49.252;8.904;2022-07-10T06:39:22;100551.94;;;18.79;48.17
60489;BME280;46331;49.252;8.904;2022-07-10T06:41:47;100561.88;;;18.78;47.07
60489;BME280;46331;49.252;8.904;2022-07-10T06:44:13;100564.81;;;18.82;46.87
60489;BME280;46331;49.252;8.904;2022-07-10T06:46:39;100561.59;;;18.95;45.87
60489;BME280;46331;49.252;8.904;2022-07-10T06:49:05;100553.19;;;19.17;45.49
60489;BME280;46331;49.252;8.904;2022-07-10T06:51:31;100555.84;;;19.33;46.06
60489;BME280;46331;49.252;8.904;2022-07-10T06:53:57;100563.34;;;19.41;45.14
60489;BME280;46331;49.252;8.904;2022-07-10T06:56:22;100562.81;;;19.39;45.75
60489;BME280;46331;49.252;8.904;2022-07-10T06:58:48;100562.75;;;19.54;45.42
60489;BME280;46331;49.252;8.904;2022-07-10T07:01:14;100559.50;;;19.62;45.23
60489;BME280;46331;49.252;8.904;2022-07-10T07:03:39;100553.47;;;19.76;44.99
60489;BME280;46331;49.252;8.904;2022-07-10T07:06:05;100551.13;;;19.64;44.82
60489;BME280;46331;49.252;8.904;2022-07-10T07:08:31;100551.28;;;19.88;44.96
60489;BME280;46331;49.252;8.904;2022-07-10T07:10:56;100548.25;;;20.34;44.04
60489;BME280;46331;49.252;8.904;2022-07-10T07:13:22;100553.38;;;20.70;42.47
60489;BME280;46331;49.252;8.904;2022-07-10T07:15:47;100564.91;;;20.42;41.90
60489;BME280;46331;49.252;8.904;2022-07-10T07:18:24;100553.63;;;20.40;42.15
60489;BME280;46331;49.252;8.904;2022-07-10T07:21:00;100556.72;;;20.23;43.28
60489;BME280;46331;49.252;8.904;2022-07-10T07:24:01;100553.38;;;20.70;42.04
60489;BME280;46331;49.252;8.904;2022-07-10T07:26:29;100550.19;;;21.17;40.71
60489;BME280;46331;49.252;8.904;2022-07-10T07:28:55;100558.25;;;21.41;40.27
60489;BME280;46331;49.252;8.904;2022-07-10T07:31:20;100564.28;;;21.76;39.45
60489;BME280;46331;49.252;8.904;2022-07-10T07:33:46;100564.53;;;22.50;37.69
60489;BME280;46331;49.252;8.904;2022-07-10T07:36:11;100569.66;;;23.27;36.09
60489;BME280;46331;49.252;8.904;2022-07-10T07:38:37;100566.88;;;22.71;36.30
60489;BME280;46331;49.252;8.904;2022-07-10T07:41:03;100562.13;;;23.37;34.81
60489;BME280;46331;49.252;8.904;2022-07-10T07:43:28;100557.56;;;24.11;34.00
60489;BME280;46331;49.252;8.904;2022-07-10T07:45:54;100565.78;;;24.28;34.03
60489;BME280;46331;49.252;8.904;2022-07-10T07:48:19;100566.94;;;24.90;32.85
60489;BME280;46331;49.252;8.904;2022-07-10T07:50:45;100572.31;;;25.79;31.28
60489;BME280;46331;49.252;8.904;2022-07-10T07:53:10;100571.38;;;26.19;31.28
60489;BME280;46331;49.252;8.904;2022-07-10T07:55:37;100559.53;;;25.71;31.22
60489;BME280;46331;49.252;8.904;2022-07-10T07:58:03;100557.59;;;26.24;30.97
60489;BME280;46331;49.252;8.904;2022-07-10T08:00:30;100567.66;;;26.32;31.40
60489;BME280;46331;49.252;8.904;2022-07-10T08:02:56;100566.22;;;24.44;33.45
60489;BME280;46331;49.252;8.904;2022-07-10T08:05:22;100564.53;;;23.11;35.02
60489;BME280;46331;49.252;8.904;2022-07-10T08:07:55;100559.94;;;21.80;38.27
60489;BME280;46331;49.252;8.904;2022-07-10T08:10:23;100558.38;;;21.55;39.73
60489;BME280;46331;49.252;8.904;2022-07-10T08:12:51;100558.56;;;21.39;39.58
60489;BME280;46331;49.252;8.904;2022-07-10T08:15:18;100554.66;;;21.70;39.56
60489;BME280;46331;49.252;8.904;2022-07-10T08:17:55;100548.44;;;23.84;36.11
60489;BME280;46331;49.252;8.904;2022-07-10T08:20:22;100549.81;;;25.21;32.96
60489;BME280;46331;49.252;8.904;2022-07-10T08:22:48;100550.84;;;26.48;31.37
60489;BME280;46331;49.252;8.904;2022-07-10T08:25:14;100555.03;;;26.92;30.40
60489;BME280;46331;49.252;8.904;2022-07-10T08:27:40;100547.09;;;27.38;30.05
60489;BME280;46331;49.252;8.904;2022-07-10T08:30:07;100542.00;;;27.58;29.71
60489;BME280;46331;49.252;8.904;2022-07-10T08:32:38;100544.25;;;27.35;29.25
60489;BME280;46331;49.252;8.904;2022-07-10T08:35:04;100548.22;;;28.34;28.23
60489;BME280;46331;49.252;8.904;2022-07-10T08:37:30;100543.72;;;26.08;30.51
60489;BME280;46331;49.252;8.904;2022-07-10T08:39:55;100543.47;;;26.39;30.43
60489;BME280;46331;49.252;8.904;2022-07-10T08:42:22;100547.72;;;25.09;33.28
60489;BME280;46331;49.252;8.904;2022-07-10T08:44:48;100536.88;;;24.15;34.31
60489;BME280;46331;49.252;8.904;2022-07-10T08:47:13;100539.63;;;23.65;34.91
60489;BME280;46331;49.252;8.904;2022-07-10T08:49:46;100539.38;;;22.83;36.49
60489;BME280;46331;49.252;8.904;2022-07-10T08:52:25;100540.44;;;21.64;38.89
60489;BME280;46331;49.252;8.904;2022-07-10T08:54:52;100541.19;;;21.89;39.12
60489;BME280;46331;49.252;8.904;2022-07-10T08:57:19;100539.19;;;21.75;39.72
60489;BME280;46331;49.252;8.904;2022-07-10T08:59:45;100541.53;;;21.82;39.40
60489;BME280;46331;49.252;8.904;2022-07-10T09:02:10;100545.41;;;21.57;39.93
60489;BME280;46331;49.252;8.904;2022-07-10T09:04:36;100539.31;;;20.98;41.78
60489;BME280;46331;49.252;8.904;2022-07-10T09:07:02;100552.03;;;20.68;42.95
60489;BME280;46331;49.252;8.904;2022-07-10T09:09:29;100551.38;;;21.30;41.92
60489;BME280;46331;49.252;8.904;2022-07-10T09:11:58;100551.66;;;21.04;42.25
60489;BME280;46331;49.252;8.904;2022-07-10T09:14:27;100556.47;;;21.31;41.91
60489;BME280;46331;49.252;8.904;2022-07-10T09:16:53;100551.50;;;21.19;42.02
60489;BME280;46331;49.252;8.904;2022-07-10T09:19:24;100559.31;;;21.21;41.32
60489;BME280;46331;49.252;8.904;2022-07-10T09:22:09;100553.66;;;20.93;42.11
60489;BME280;46331;49.252;8.904;2022-07-10T09:24:40;100554.53;;;20.25;42.83
60489;BME280;46331;49.252;8.904;2022-07-10T09:27:06;100556.94;;;20.26;43.28
60489;BME280;46331;49.252;8.904;2022-07-10T09:29:44;100561.00;;;20.58;43.43
60489;BME280;46331;49.252;8.904;2022-07-10T09:32:11;100564.09;;;20.76;42.37
60489;BME280;46331;49.252;8.904;2022-07-10T09:34:38;100561.63;;;21.08;41.99
60489;BME280;46331;49.252;8.904;2022-07-10T09:42:47;100558.75;;;21.67;38.81
60489;BME280;46331;49.252;8.904;2022-07-10T09:45:15;100558.56;;;21.83;38.42
60489;BME280;46331;49.252;8.904;2022-07-10T09:47:58;100554.66;;;21.70;38.66
60489;BME280;46331;49.252;8.904;2022-07-10T09:50:33;100546.25;;;21.28;38.39
60489;BME280;46331;49.252;8.904;2022-07-10T09:53:01;100555.19;;;21.91;38.50
60489;BME280;46331;49.252;8.904;2022-07-10T09:55:28;100549.09;;;23.90;35.21
60489;BME280;46331;49.252;8.904;2022-07-10T09:58:06;100545.53;;;24.80;32.80
60489;BME280;46331;49.252;8.904;2022-07-10T10:00:39;100549.50;;;24.51;32.40
60489;BME280;46331;49.252;8.904;2022-07-10T10:03:11;100548.06;;;24.22;32.58
60489;BME280;46331;49.252;8.904;2022-07-10T10:05:39;100544.63;;;23.57;33.61
60489;BME280;46331;49.252;8.904;2022-07-10T10:10:49;100548.59;;;22.35;34.92
60489;BME280;46331;49.252;8.904;2022-07-10T10:13:23;100542.13;;;22.78;35.25
60489;BME280;46331;49.252;8.904;2022-07-10T10:15:52;100543.25;;;22.77;35.60
60489;BME280;46331;49.252;8.904;2022-07-10T10:18:19;100540.28;;;22.92;34.97
60489;BME280;46331;49.252;8.904;2022-07-10T10:20:46;100538.47;;;22.88;34.80
60489;BME280;46331;49.252;8.904;2022-07-10T10:23:16;100545.59;;;23.11;34.95
60489;BME280;46331;49.252;8.904;2022-07-10T10:25:55;100537.25;;;23.49;34.17
60489;BME280;46331;49.252;8.904;2022-07-10T10:28:23;100538.75;;;23.42;33.86
60489;BME280;46331;49.252;8.904;2022-07-10T10:30:52;100534.56;;;24.31;32.27
60489;BME280;46331;49.252;8.904;2022-07-10T10:35:57;100524.66;;;25.73;30.40
60489;BME280;46331;49.252;8.904;2022-07-10T10:38:23;100527.13;;;26.57;28.10
60489;BME280;46331;49.252;8.904;2022-07-10T10:40:49;100523.44;;;27.00;26.70
60489;BME280;46331;49.252;8.904;2022-07-10T10:43:23;100518.94;;;28.55;25.85
60489;BME280;46331;49.252;8.904;2022-07-10T10:45:50;100511.31;;;27.70;25.49
60489;BME280;46331;49.252;8.904;2022-07-10T10:48:17;100520.97;;;25.95;28.21
60489;BME280;46331;49.252;8.904;2022-07-10T10:50:53;100524.63;;;24.80;30.82
60489;BME280;46331;49.252;8.904;2022-07-10T10:53:20;100531.31;;;24.20;31.00
60489;BME280;46331;49.252;8.904;2022-07-10T10:58:26;100529.78;;;24.99;30.63
60489;BME280;46331;49.252;8.904;2022-07-10T11:01:02;100519.69;;;25.31;29.16
60489;BME280;46331;49.252;8.904;2022-07-10T11:03:28;100530.31;;;25.19;30.11
60489;BME280;46331;49.252;8.904;2022-07-10T11:05:54;100532.81;;;24.89;29.98
60489;BME280;46331;49.252;8.904;2022-07-10T11:08:39;100528.31;;;25.42;29.20
60489;BME280;46331;49.252;8.904;2022-07-10T11:13:59;100525.19;;;26.66;28.37
60489;BME280;46331;49.252;8.904;2022-07-10T11:16:25;100530.75;;;27.38;26.65
60489;BME280;46331;49.252;8.904;2022-07-10T11:18:54;100516.72;;;26.98;26.99
60489;BME280;46331;49.252;8.904;2022-07-10T11:21:24;100510.03;;;26.48;26.86
60489;BME280;46331;49.252;8.904;2022-07-10T11:28:54;100511.22;;;27.99;25.75
60489;BME280;46331;49.252;8.904;2022-07-10T11:31:25;100523.56;;;28.30;25.50
60489;BME280;46331;49.252;8.904;2022-07-10T11:33:53;100524.97;;;28.03;24.80
60489;BME280;46331;49.252;8.904;2022-07-10T11:36:21;100522.53;;;27.68;25.43
60489;BME280;46331;49.252;8.904;2022-07-10T11:38:56;100515.16;;;27.18;25.83
60489;BME280;46331;49.252;8.904;2022-07-10T11:41:21;100518.81;;;26.92;26.46
60489;BME280;46331;49.252;8.904;2022-07-10T11:43:53;100518.91;;;25.92;28.24
60489;BME280;46331;49.252;8.904;2022-07-10T11:46:20;100517.31;;;25.91;27.54
60489;BME280;46331;49.252;8.904;2022-07-10T11:48:48;100517.47;;;26.12;27.60
60489;BME280;46331;49.252;8.904;2022-07-10T11:51:30;100508.16;;;26.31;27.23
60489;BME280;46331;49.252;8.904;2022-07-10T11:53:59;100516.94;;;27.86;25.74
60489;BME280;46331;49.252;8.904;2022-07-10T11:56:28;100507.00;;;28.48;24.85
60489;BME280;46331;49.252;8.904;2022-07-10T11:59:13;100516.13;;;28.18;25.05
60489;BME280;46331;49.252;8.904;2022-07-10T12:04:09;100495.97;;;30.00;22.76
60489;BME280;46331;49.252;8.904;2022-07-10T12:06:37;100504.03;;;30.24;22.45
60489;BME280;46331;49.252;8.904;2022-07-10T12:09:07;100490.97;;;30.34;21.97
60489;BME280;46331;49.252;8.904;2022-07-10T12:11:34;100505.34;;;29.58;22.65
60489;BME280;46331;49.252;8.904;2022-07-10T12:16:43;100502.53;;;27.64;25.07
60489;BME280;46331;49.252;8.904;2022-07-10T12:19:12;100507.03;;;26.88;25.72
60489;BME280;46331;49.252;8.904;2022-07-10T12:21:39;100508.84;;;28.10;25.28
60489;BME280;46331;49.252;8.904;2022-07-10T12:24:07;100504.56;;;27.25;25.46
60489;BME280;46331;49.252;8.904;2022-07-10T12:26:34;100505.78;;;27.06;25.86
60489;BME280;46331;49.252;8.904;2022-07-10T12:29:01;100505.25;;;28.31;23.89
60489;BME280;46331;49.252;8.904;2022-07-10T12:31:29;100495.28;;;29.34;22.83
60489;BME280;46331;49.252;8.904;2022-07-10T12:33:57;100498.50;;;29.11;22.15
60489;BME280;46331;49.252;8.904;2022-07-10T12:39:13;100498.72;;;29.06;21.65
60489;BME280;46331;49.252;8.904;2022-07-10T12:42:05;100498.69;;;29.71;21.43
60489;BME280;46331;49.252;8.904;2022-07-10T12:44:45;100486.78;;;28.98;22.64
60489;BME280;46331;49.252;8.904;2022-07-10T12:47:15;100490.44;;;28.65;22.65
60489;BME280;46331;49.252;8.904;2022-07-10T12:52:28;100500.06;;;27.50;24.69
60489;BME280;46331;49.252;8.904;2022-07-10T12:55:18;100493.19;;;26.54;26.05
60489;BME280;46331;49.252;8.904;2022-07-10T12:57:51;100493.31;;;25.93;26.58
60489;BME280;46331;49.252;8.904;2022-07-10T13:00:23;100502.94;;;26.08;26.25
60489;BME280;46331;49.252;8.904;2022-07-10T13:03:01;100489.72;;;28.56;24.10
60489;BME280;46331;49.252;8.904;2022-07-10T13:05:32;100485.47;;;27.88;23.69
60489;BME280;46331;49.252;8.904;2022-07-10T13:08:11;100487.66;;;27.10;24.46
60489;BME280;46331;49.252;8.904;2022-07-10T13:10:39;100492.44;;;27.43;24.99
60489;BME280;46331;49.252;8.904;2022-07-10T13:13:05;100489.78;;;27.26;25.54
60489;BME280;46331;49.252;8.904;2022-07-10T13:15:32;100495.28;;;26.96;25.25
60489;BME280;46331;49.252;8.904;2022-07-10T13:18:00;100491.50;;;26.32;25.85
60489;BME280;46331;49.252;8.904;2022-07-10T13:20:25;100488.84;;;26.06;27.42
60489;BME280;46331;49.252;8.904;2022-07-10T13:22:51;100482.16;;;27.82;24.13
60489;BME280;46331;49.252;8.904;2022-07-10T13:25:16;100484.72;;;26.94;25.26
60489;BME280;46331;49.252;8.904;2022-07-10T13:27:42;100484.81;;;26.77;25.10